This is the latest recevied weather packets stored in our database for station/object K4AGR-13. If no packets are shown the sender has not sent any weather packets the latest 1 day(s).
| Time | Temp. | Humidity | Pressure | Rain* | Wind** | Luminosity | Snow |
|---|---|---|---|---|---|---|---|
| 1778089568 | 29.44° C | 55% | 1016 hPa | 0 mm | - | 1159 W/m² | - |
| 1778087144 | 28.89° C | 51% | 1016.7 hPa | 0 mm | - | 435 W/m² | - |
| 1778085630 | 27.78° C | 56% | 1017 hPa | 0 mm | - | 1100 W/m² | - |
| 1778085326 | 28.33° C | 52% | 1017 hPa | 0 mm | - | 299 W/m² | - |
| 1778083810 | 28.33° C | 55% | 1017.1 hPa | 0 mm | - | 1047 W/m² | - |
| 1778080886 | 26.67° C | 63% | 1017.2 hPa | 0 mm | - | 1006 W/m² | - |
| 1778080585 | 26.67° C | 61% | 1016.8 hPa | 0 mm | - | 935 W/m² | - |
| 1778079978 | 26.11° C | 65% | 1016.8 hPa | 0 mm | - | 859 W/m² | - |
| 1778079675 | 25.56° C | 65% | 1016.7 hPa | 0 mm | - | 852 W/m² | - |
| 1778079372 | 25.56° C | 65% | 1016.7 hPa | 0 mm | - | 846 W/m² | - |
| 1778077556 | 25.56° C | 67% | 1016.3 hPa | 0 mm | - | 731 W/m² | - |
| 1778077254 | 25° C | 71% | 1016.4 hPa | 0 mm | - | 584 W/m² | - |
| 1778076044 | 23.89° C | 74% | 1016.2 hPa | 0 mm | - | 406 W/m² | - |
| 1778073618 | 22.22° C | 84% | 1015.7 hPa | 0 mm | - | 328 W/m² | - |
| 1778072406 | 21.67° C | 87% | 1015.4 hPa | 0 mm | - | 182 W/m² | - |
| 1778070592 | 21.67° C | 91% | 1015.2 hPa | 0 mm | - | 146 W/m² | - |
| 1778069684 | 20.56° C | 93% | 1015.1 hPa | 0 mm | - | 92 W/m² | - |
| 1778069380 | 20.56° C | 94% | 1014.7 hPa | 0 mm | - | 105 W/m² | - |
| 1778069078 | 20.56° C | 95% | 1014.8 hPa | 0 mm | - | 110 W/m² | - |
| 1778068473 | 20.56° C | 96% | 1014.6 hPa | 0 mm | - | 77 W/m² | - |
| 1778068171 | 20.56° C | 96% | 1014.5 hPa | 0 mm | - | 70 W/m² | - |
| 1778067567 | 20° C | 97% | 1014.3 hPa | 0 mm | - | 58 W/m² | - |
| 1778065750 | 20° C | 97% | 1013.7 hPa | 0 mm | - | 15 W/m² | - |
| 1778064538 | 19.44° C | 97% | 1013.3 hPa | 0 mm | - | 2 W/m² | - |
| 1778064236 | 19.44° C | 97% | 1013.1 hPa | 0 mm | - | 1 W/m² | - |
* Rain latest hour (hover to see other rain measurements)
** Current wind speed in m/s (hover to see current wind gust speed)